createdAt,value
2023-05-04T00:01:05.434Z,21.70
2023-05-04T00:03:38.650Z,17.38
2023-05-04T00:06:11.087Z,21.60
2023-05-04T00:08:43.374Z,25.13
2023-05-04T00:11:16.714Z,20.90
2023-05-04T00:13:49.013Z,17.02
2023-05-04T00:16:21.326Z,16.05
2023-05-04T00:18:54.289Z,16.70
2023-05-04T00:21:26.668Z,16.15
2023-05-04T00:23:59.189Z,18.35
2023-05-04T00:26:31.474Z,17.10
2023-05-04T00:29:03.729Z,18.17
2023-05-04T00:31:36.084Z,18.70
2023-05-04T00:34:09.127Z,18.20
2023-05-04T00:36:41.922Z,18.50
2023-05-04T00:39:14.721Z,18.98
2023-05-04T00:41:47.004Z,19.20
2023-05-04T00:44:22.708Z,17.80
2023-05-04T00:46:55.613Z,21.75
2023-05-04T00:49:28.905Z,18.38
2023-05-04T00:52:02.732Z,17.98
2023-05-04T00:54:35.180Z,17.70
2023-05-04T00:57:07.792Z,25.70
2023-05-04T00:59:40.379Z,18.85
2023-05-04T01:02:12.852Z,21.80
2023-05-04T01:04:46.141Z,19.52
2023-05-04T01:07:25.987Z,25.00
2023-05-04T01:10:04.446Z,17.95
2023-05-04T01:12:40.948Z,21.27
2023-05-04T01:15:14.054Z,19.17
2023-05-04T01:17:46.500Z,22.00
2023-05-04T01:20:20.428Z,24.83
2023-05-04T01:22:53.402Z,19.77
2023-05-04T01:25:30.500Z,22.90
2023-05-04T01:28:07.419Z,17.80
2023-05-04T01:30:43.678Z,17.05
2023-05-04T01:33:16.833Z,16.27
2023-05-04T01:35:49.961Z,18.65
2023-05-04T01:38:23.366Z,18.67
2023-05-04T01:40:56.253Z,20.67
2023-05-04T01:43:28.567Z,17.90
2023-05-04T01:46:01.011Z,17.25
2023-05-04T01:48:33.327Z,17.70
2023-05-04T01:51:05.789Z,19.63
2023-05-04T01:53:38.720Z,20.45
2023-05-04T01:56:11.058Z,21.52
2023-05-04T01:58:43.362Z,15.77
2023-05-04T02:01:15.709Z,20.15
2023-05-04T02:03:48.236Z,25.35
2023-05-04T02:06:20.690Z,19.80
2023-05-04T02:08:53.682Z,21.67
2023-05-04T02:11:25.974Z,20.63
2023-05-04T02:13:59.043Z,21.80
2023-05-04T02:16:31.391Z,21.35
2023-05-04T02:19:03.773Z,22.92
2023-05-04T02:21:36.103Z,20.38
2023-05-04T02:24:09.142Z,18.50
2023-05-04T02:26:41.426Z,20.85
2023-05-04T02:29:14.258Z,24.70
2023-05-04T02:31:46.643Z,22.33
2023-05-04T02:34:19.811Z,25.98
2023-05-04T02:36:55.179Z,20.95
2023-05-04T02:39:28.113Z,21.23
2023-05-04T02:42:00.806Z,19.45
2023-05-04T02:44:33.098Z,20.98
2023-05-04T02:47:05.513Z,21.05
2023-05-04T02:49:37.793Z,21.23
2023-05-04T02:52:10.100Z,23.90
2023-05-04T02:54:43.027Z,17.33
2023-05-04T02:57:15.363Z,22.88
2023-05-04T02:59:47.670Z,20.13
2023-05-04T03:02:20.133Z,18.77
2023-05-04T03:04:52.474Z,20.90
2023-05-04T03:07:25.353Z,20.00
2023-05-04T03:09:58.269Z,22.50
2023-05-04T03:12:30.590Z,20.30
2023-05-04T03:15:03.509Z,15.80
2023-05-04T03:17:36.056Z,18.02
2023-05-04T03:20:10.095Z,17.48
2023-05-04T03:22:42.431Z,20.25
2023-05-04T03:25:16.246Z,15.85
2023-05-04T03:27:48.538Z,15.95
2023-05-04T03:30:21.060Z,12.75
2023-05-04T03:32:53.435Z,16.15
2023-05-04T03:35:25.792Z,14.77
2023-05-04T03:38:00.874Z,15.93
2023-05-04T03:40:34.493Z,12.95
2023-05-04T03:43:06.788Z,11.52
2023-05-04T03:45:39.157Z,13.27
2023-05-04T03:48:11.530Z,12.68
2023-05-04T03:50:43.895Z,14.27
2023-05-04T03:53:16.250Z,11.73
2023-05-04T03:55:50.196Z,13.18
2023-05-04T03:58:22.510Z,9.70
2023-05-04T04:00:55.116Z,11.20
2023-05-04T04:03:27.926Z,10.35
2023-05-04T04:06:02.817Z,12.32
2023-05-04T04:08:35.232Z,9.68
2023-05-04T04:11:09.060Z,11.82
2023-05-04T04:13:41.379Z,11.95
2023-05-04T04:16:13.812Z,12.93
2023-05-04T04:18:46.321Z,13.85
2023-05-04T04:21:18.654Z,13.20
2023-05-04T04:23:50.904Z,12.35
2023-05-04T04:26:23.878Z,11.57
2023-05-04T04:28:56.174Z,10.95
2023-05-04T04:31:29.754Z,11.57
2023-05-04T04:34:02.069Z,8.95
2023-05-04T04:36:34.553Z,11.15
2023-05-04T04:39:07.421Z,13.98
2023-05-04T04:41:40.387Z,10.15
2023-05-04T04:44:12.759Z,12.30
2023-05-04T04:46:45.844Z,11.13
2023-05-04T04:49:18.132Z,11.77
2023-05-04T04:51:50.450Z,11.35
2023-05-04T04:54:22.730Z,12.40
2023-05-04T04:56:55.649Z,11.80
2023-05-04T04:59:27.908Z,10.18
2023-05-04T05:02:01.136Z,10.57
2023-05-04T05:04:33.459Z,12.80
2023-05-04T05:07:08.226Z,10.23
2023-05-04T05:09:40.756Z,12.40
2023-05-04T05:12:13.725Z,11.45
2023-05-04T05:14:46.631Z,12.52
2023-05-04T05:17:19.641Z,13.45
2023-05-04T05:19:51.921Z,11.20
2023-05-04T05:22:24.373Z,16.25
2023-05-04T05:24:56.671Z,8.50
2023-05-04T05:27:29.622Z,11.90
2023-05-04T05:30:03.062Z,10.63
2023-05-04T05:32:37.137Z,13.35
2023-05-04T05:35:09.919Z,9.80
2023-05-04T05:37:42.263Z,12.38
2023-05-04T05:40:14.708Z,10.40
2023-05-04T05:42:47.727Z,16.30
2023-05-04T05:45:20.034Z,9.57
2023-05-04T05:47:52.314Z,9.30
2023-05-04T05:50:24.724Z,9.27
2023-05-04T05:52:57.000Z,10.48
2023-05-04T05:55:29.321Z,9.70
2023-05-04T05:58:02.575Z,9.25
2023-05-04T06:00:34.843Z,10.13
2023-05-04T06:03:07.250Z,9.70
2023-05-04T06:05:39.894Z,10.60
2023-05-04T06:08:12.162Z,19.70
2023-05-04T06:10:44.480Z,14.55
2023-05-04T06:13:17.672Z,12.32
2023-05-04T06:15:53.304Z,12.75
2023-05-04T06:18:25.686Z,15.63
2023-05-04T06:20:58.918Z,11.95
2023-05-04T06:23:31.386Z,10.45
2023-05-04T06:26:05.207Z,14.27
2023-05-04T06:28:38.201Z,13.00
2023-05-04T06:31:10.537Z,12.55
2023-05-04T06:33:43.023Z,9.82
2023-05-04T06:36:15.548Z,12.18
2023-05-04T06:38:47.827Z,8.85
2023-05-04T06:41:20.154Z,12.93
2023-05-04T06:43:53.236Z,9.63
2023-05-04T06:46:25.918Z,14.32
2023-05-04T06:48:58.320Z,11.63
2023-05-04T06:51:30.774Z,10.20
2023-05-04T06:54:03.268Z,11.73
2023-05-04T06:56:35.625Z,12.75
2023-05-04T06:59:09.309Z,10.57
2023-05-04T07:01:41.789Z,11.90
2023-05-04T07:04:15.730Z,14.07
2023-05-04T07:06:48.095Z,13.00
2023-05-04T07:09:20.895Z,9.48
2023-05-04T07:11:53.243Z,10.05
2023-05-04T07:14:26.359Z,15.60
2023-05-04T07:17:00.062Z,10.60
2023-05-04T07:19:32.954Z,10.93
2023-05-04T07:22:05.301Z,14.27
2023-05-04T07:24:37.586Z,10.48
2023-05-04T07:27:10.876Z,11.45
2023-05-04T07:29:43.902Z,14.13
2023-05-04T07:32:16.398Z,8.18
2023-05-04T07:34:48.715Z,10.68
2023-05-04T07:37:21.092Z,9.82
2023-05-04T07:39:53.450Z,10.63
2023-05-04T07:42:27.246Z,8.85
2023-05-04T07:45:01.107Z,12.75
2023-05-04T07:47:33.462Z,9.10
2023-05-04T07:50:07.569Z,10.88
2023-05-04T07:52:39.975Z,12.73
2023-05-04T07:55:12.289Z,8.50
2023-05-04T07:57:44.855Z,7.55
2023-05-04T08:00:19.906Z,12.45
2023-05-04T08:02:52.217Z,12.02
2023-05-04T08:05:24.546Z,8.88
2023-05-04T08:07:56.803Z,10.68
2023-05-04T08:10:29.243Z,10.48
2023-05-04T08:13:02.035Z,12.75
2023-05-04T08:15:35.120Z,12.57
2023-05-04T08:18:07.511Z,8.70
2023-05-04T08:20:40.013Z,10.82
2023-05-04T08:23:12.383Z,14.57
2023-05-04T08:25:44.741Z,10.45
2023-05-04T08:28:17.053Z,10.02
2023-05-04T08:30:50.448Z,9.00
2023-05-04T08:33:22.845Z,11.30
2023-05-04T08:35:55.180Z,12.68
2023-05-04T08:38:27.636Z,13.23
2023-05-04T08:41:02.448Z,14.90
2023-05-04T08:43:35.434Z,12.45
2023-05-04T08:46:09.951Z,19.38
2023-05-04T08:48:44.017Z,11.23
2023-05-04T08:51:17.667Z,12.30
2023-05-04T08:53:51.374Z,17.48
2023-05-04T08:56:25.039Z,12.43
2023-05-04T08:59:01.113Z,13.02
2023-05-04T09:01:37.581Z,11.52
2023-05-04T09:04:10.933Z,9.68
2023-05-04T09:06:43.419Z,13.27
2023-05-04T09:09:15.830Z,12.10
2023-05-04T09:11:48.105Z,12.15
2023-05-04T09:14:22.411Z,11.45
2023-05-04T09:16:55.944Z,13.35
2023-05-04T09:19:32.776Z,12.25
2023-05-04T09:22:14.856Z,14.95
2023-05-04T09:24:47.168Z,13.10
2023-05-04T09:27:19.750Z,14.57
2023-05-04T09:29:55.091Z,18.55
2023-05-04T09:32:29.271Z,12.85
2023-05-04T09:35:02.344Z,10.32
2023-05-04T09:37:43.793Z,12.90
2023-05-04T09:40:16.102Z,12.13
2023-05-04T09:42:56.460Z,12.02
2023-05-04T09:45:39.512Z,13.30
2023-05-04T09:48:16.920Z,11.88
2023-05-04T09:50:51.602Z,16.38
2023-05-04T09:53:25.496Z,14.23
2023-05-04T09:56:08.746Z,15.00
2023-05-04T09:58:42.446Z,11.57
2023-05-04T10:01:15.680Z,14.52
2023-05-04T10:03:48.681Z,13.52
2023-05-04T10:06:21.223Z,10.82
2023-05-04T10:08:53.596Z,13.77
2023-05-04T10:11:26.163Z,13.50
2023-05-04T10:13:58.550Z,10.48
2023-05-04T10:16:44.801Z,11.43
2023-05-04T10:19:56.669Z,11.32
2023-05-04T10:22:42.093Z,11.43
2023-05-04T10:25:34.707Z,8.55
2023-05-04T10:28:18.772Z,9.95
2023-05-04T10:30:56.257Z,8.75
2023-05-04T10:33:38.386Z,12.02
2023-05-04T10:36:11.706Z,9.45
2023-05-04T10:38:44.081Z,11.63
2023-05-04T10:41:17.470Z,8.55
2023-05-04T10:43:52.692Z,12.32
2023-05-04T10:46:24.974Z,11.07
2023-05-04T10:48:57.406Z,9.93
2023-05-04T10:51:42.389Z,12.32
2023-05-04T10:54:21.156Z,9.63
2023-05-04T10:57:02.870Z,10.25
2023-05-04T10:59:36.866Z,8.38
2023-05-04T11:02:10.434Z,10.50
2023-05-04T11:04:42.722Z,9.85
2023-05-04T11:07:15.636Z,8.63
2023-05-04T11:09:47.939Z,10.98
2023-05-04T11:12:20.696Z,9.10
2023-05-04T11:15:04.093Z,9.40
2023-05-04T11:17:45.163Z,12.15
2023-05-04T11:20:22.053Z,9.80
2023-05-04T11:22:55.107Z,14.35
2023-05-04T11:25:28.410Z,12.40
2023-05-04T11:28:00.859Z,11.10
2023-05-04T11:30:34.439Z,9.43
2023-05-04T11:33:11.524Z,14.40
2023-05-04T11:35:44.862Z,10.23
2023-05-04T11:38:19.657Z,14.60
2023-05-04T11:40:52.066Z,12.70
2023-05-04T11:43:24.504Z,9.60
2023-05-04T11:46:00.201Z,12.20
2023-05-04T11:48:34.461Z,15.02
2023-05-04T11:51:07.184Z,14.75
2023-05-04T11:53:40.973Z,12.43
2023-05-04T11:56:13.277Z,14.40
2023-05-04T11:58:45.548Z,11.85
2023-05-04T12:01:17.849Z,14.82
2023-05-04T12:03:54.640Z,9.90
2023-05-04T12:06:33.480Z,11.98
2023-05-04T12:09:06.662Z,16.17
2023-05-04T12:11:39.990Z,12.75
2023-05-04T12:14:13.358Z,11.70
2023-05-04T12:16:54.315Z,11.70
2023-05-04T12:19:26.627Z,14.35
2023-05-04T12:21:59.017Z,11.65
2023-05-04T12:24:32.172Z,11.82
2023-05-04T12:27:04.673Z,12.50
2023-05-04T12:29:36.949Z,12.50
2023-05-04T12:32:09.364Z,11.23
2023-05-04T12:34:41.728Z,14.32
2023-05-04T12:37:14.020Z,12.00
2023-05-04T12:39:46.978Z,14.23
2023-05-04T12:42:19.253Z,16.60
2023-05-04T12:44:51.915Z,15.73
2023-05-04T12:47:25.424Z,11.75
2023-05-04T12:49:57.742Z,9.15
2023-05-04T12:52:30.237Z,12.52
2023-05-04T12:55:03.656Z,15.20
2023-05-04T12:57:36.917Z,13.50
2023-05-04T13:00:10.767Z,12.38
2023-05-04T13:02:43.693Z,16.98
2023-05-04T13:05:17.768Z,14.57
2023-05-04T13:07:50.027Z,14.23
2023-05-04T13:10:24.372Z,14.13
2023-05-04T13:13:04.373Z,13.02
2023-05-04T13:15:36.715Z,13.43
2023-05-04T13:18:09.141Z,12.55
2023-05-04T13:20:41.444Z,14.10
2023-05-04T13:23:13.753Z,13.35
2023-05-04T13:25:46.726Z,13.93
2023-05-04T13:28:19.258Z,12.88
2023-05-04T13:30:51.994Z,11.98
2023-05-04T13:33:29.876Z,13.23
2023-05-04T13:36:03.002Z,13.65
2023-05-04T13:38:35.311Z,9.10
2023-05-04T13:41:08.304Z,6.95
2023-05-04T13:43:40.650Z,8.68
2023-05-04T13:46:12.951Z,6.35
2023-05-04T13:48:45.300Z,6.97
2023-05-04T13:51:20.389Z,6.32
2023-05-04T13:53:52.678Z,7.10
2023-05-04T13:56:25.747Z,9.40
2023-05-04T13:58:58.080Z,6.68
2023-05-04T14:01:30.580Z,5.88
2023-05-04T14:04:03.138Z,5.93
2023-05-04T14:06:35.475Z,7.30
2023-05-04T14:09:08.928Z,6.63
2023-05-04T14:11:41.896Z,7.30
2023-05-04T14:14:14.314Z,9.88
2023-05-04T14:16:46.780Z,7.53
2023-05-04T14:19:19.086Z,6.88
2023-05-04T14:21:51.332Z,6.93
2023-05-04T14:24:24.606Z,7.10
2023-05-04T14:26:57.524Z,9.60
2023-05-04T14:29:29.819Z,6.75
2023-05-04T14:32:02.136Z,8.55
2023-05-04T14:34:35.371Z,6.97
2023-05-04T14:37:07.640Z,7.18
2023-05-04T14:39:40.024Z,5.47
2023-05-04T14:42:12.959Z,5.25
2023-05-04T14:44:45.232Z,6.15
2023-05-04T14:47:18.495Z,7.70
2023-05-04T14:49:51.181Z,5.28
2023-05-04T14:52:23.470Z,6.40
2023-05-04T14:54:55.724Z,6.68
2023-05-04T14:57:28.649Z,6.22
2023-05-04T15:00:07.158Z,6.47
2023-05-04T15:02:39.795Z,7.40
2023-05-04T15:05:12.274Z,6.97
2023-05-04T15:07:44.569Z,9.05
2023-05-04T15:10:16.998Z,6.70
2023-05-04T15:12:50.491Z,11.27
2023-05-04T15:15:22.868Z,7.88
2023-05-04T15:17:55.217Z,10.68
2023-05-04T15:20:27.746Z,7.38
2023-05-04T15:23:09.860Z,7.90
2023-05-04T15:25:42.291Z,8.57
2023-05-04T15:28:15.264Z,9.50
2023-05-04T15:30:47.532Z,12.85
2023-05-04T15:33:19.884Z,8.18
2023-05-04T15:35:52.194Z,7.88
2023-05-04T15:38:27.801Z,8.63
2023-05-04T15:41:00.189Z,8.75
2023-05-04T15:43:33.691Z,8.68
2023-05-04T15:46:05.981Z,9.00
2023-05-04T15:48:38.299Z,9.48
2023-05-04T15:51:11.102Z,7.65
2023-05-04T15:53:43.569Z,8.13
2023-05-04T15:56:15.968Z,8.10
2023-05-04T15:58:48.959Z,9.73
2023-05-04T16:01:21.325Z,8.07
2023-05-04T16:03:54.798Z,8.10
2023-05-04T16:06:27.320Z,7.07
2023-05-04T16:08:59.958Z,9.00
2023-05-04T16:11:32.973Z,6.70
2023-05-04T16:14:05.961Z,11.32
2023-05-04T16:16:38.355Z,7.82
2023-05-04T16:19:11.767Z,5.72
2023-05-04T16:21:44.264Z,6.88
2023-05-04T16:24:16.569Z,6.03
2023-05-04T16:26:49.150Z,7.35
2023-05-04T16:29:22.488Z,7.53
2023-05-04T16:31:55.302Z,5.35
2023-05-04T16:34:27.567Z,5.97
2023-05-04T16:37:00.915Z,7.57
2023-05-04T16:39:33.896Z,4.75
2023-05-04T16:42:06.234Z,5.38
2023-05-04T16:44:39.215Z,4.35
2023-05-04T16:47:11.534Z,4.18
2023-05-04T16:49:43.866Z,5.13
2023-05-04T16:52:16.185Z,4.20
2023-05-04T16:54:48.470Z,4.03
2023-05-04T16:57:20.813Z,5.88
2023-05-04T16:59:54.645Z,3.80
2023-05-04T17:02:27.046Z,3.00
2023-05-04T17:04:59.337Z,7.82
2023-05-04T17:07:31.873Z,1.85
2023-05-04T17:10:04.752Z,2.72
2023-05-04T17:12:37.454Z,3.78
2023-05-04T17:15:11.691Z,3.67
2023-05-04T17:17:44.141Z,2.28
2023-05-04T17:20:16.611Z,3.95
2023-05-04T17:22:50.706Z,3.70
2023-05-04T17:25:23.516Z,3.15
2023-05-04T17:27:55.846Z,2.65
2023-05-04T17:30:28.807Z,7.70
2023-05-04T17:33:08.392Z,4.75
2023-05-04T17:35:40.762Z,4.13
2023-05-04T17:38:13.055Z,4.05
2023-05-04T17:40:45.341Z,4.68
2023-05-04T17:43:17.643Z,5.10
2023-05-04T17:45:50.661Z,6.13
2023-05-04T17:48:23.509Z,4.00
2023-05-04T17:50:55.882Z,3.38
2023-05-04T17:53:29.071Z,4.47
2023-05-04T17:56:01.424Z,3.80
2023-05-04T17:58:33.918Z,6.50
2023-05-04T18:01:06.908Z,4.80
2023-05-04T18:03:39.445Z,4.20
2023-05-04T18:06:12.002Z,3.40
2023-05-04T18:08:44.314Z,4.35
2023-05-04T18:11:16.611Z,3.92
2023-05-04T18:13:50.152Z,5.85
2023-05-04T18:16:23.766Z,3.58
2023-05-04T18:18:58.329Z,4.00
2023-05-04T18:21:30.901Z,4.63
2023-05-04T18:24:03.374Z,4.07
2023-05-04T18:26:35.770Z,4.00
2023-05-04T18:29:18.435Z,6.78
2023-05-04T18:31:52.528Z,5.22
2023-05-04T18:34:24.845Z,5.60
2023-05-04T18:36:57.109Z,5.22
2023-05-04T18:39:29.406Z,7.55
2023-05-04T18:42:01.934Z,5.70
2023-05-04T18:44:34.368Z,7.57
2023-05-04T18:47:07.897Z,4.32
2023-05-04T18:49:40.584Z,3.65
2023-05-04T18:52:12.814Z,5.38
2023-05-04T18:54:45.493Z,5.68
2023-05-04T18:57:17.851Z,7.05
2023-05-04T18:59:50.204Z,5.72
2023-05-04T19:02:24.214Z,4.45
2023-05-04T19:04:56.581Z,6.70
2023-05-04T19:07:28.936Z,5.13
2023-05-04T19:10:01.952Z,9.00
2023-05-04T19:12:34.349Z,5.40
2023-05-04T19:15:07.806Z,10.23
2023-05-04T19:17:40.807Z,6.68
2023-05-04T19:20:13.448Z,5.43
2023-05-04T19:22:45.725Z,6.65
2023-05-04T19:25:33.284Z,6.35
2023-05-04T19:28:08.316Z,8.43
2023-05-04T19:30:40.981Z,8.52
2023-05-04T19:33:14.203Z,5.90
2023-05-04T19:35:46.978Z,6.35
2023-05-04T19:38:19.255Z,13.88
2023-05-04T19:40:51.703Z,8.25
2023-05-04T19:43:23.983Z,5.60
2023-05-04T19:45:57.362Z,8.63
2023-05-04T19:48:30.422Z,9.80
2023-05-04T19:51:02.860Z,7.00
2023-05-04T19:53:35.182Z,7.05
2023-05-04T19:56:07.478Z,6.35
2023-05-04T19:58:39.738Z,6.75
2023-05-04T20:01:12.015Z,7.80
2023-05-04T20:03:44.960Z,7.63
2023-05-04T20:06:17.263Z,7.80
2023-05-04T20:08:49.566Z,9.00
2023-05-04T20:11:22.534Z,6.65
2023-05-04T20:13:55.750Z,9.07
2023-05-04T20:16:28.552Z,7.68
2023-05-04T20:19:03.781Z,8.00
2023-05-04T20:21:36.439Z,6.93
2023-05-04T20:24:09.142Z,7.30
2023-05-04T20:26:41.453Z,8.82
2023-05-04T20:29:13.721Z,9.90
2023-05-04T20:31:46.028Z,8.10
2023-05-04T20:34:19.251Z,8.15
2023-05-04T20:36:51.558Z,9.13
2023-05-04T20:39:23.914Z,6.60
2023-05-04T20:41:56.379Z,8.77
2023-05-04T20:44:28.685Z,7.63
2023-05-04T20:47:01.830Z,9.48
2023-05-04T20:49:34.762Z,8.68
2023-05-04T20:52:07.056Z,8.20
2023-05-04T20:54:39.341Z,9.52
2023-05-04T20:57:11.671Z,11.73
2023-05-04T20:59:44.028Z,7.68
2023-05-04T21:02:16.354Z,8.93
2023-05-04T21:04:49.254Z,9.77
2023-05-04T21:07:21.526Z,7.65
2023-05-04T21:09:56.442Z,10.57
2023-05-04T21:12:28.936Z,7.40
2023-05-04T21:15:01.381Z,8.25
2023-05-04T21:17:33.781Z,5.57
2023-05-04T21:20:08.559Z,6.82
2023-05-04T21:22:41.078Z,7.90
2023-05-04T21:25:13.496Z,8.75
2023-05-04T21:27:45.755Z,6.20
2023-05-04T21:30:18.138Z,6.75
2023-05-04T21:32:50.677Z,6.55
2023-05-04T21:35:23.898Z,8.38
2023-05-04T21:37:56.412Z,6.93
2023-05-04T21:40:28.762Z,7.93
2023-05-04T21:43:01.629Z,11.57
2023-05-04T21:45:33.976Z,6.88
2023-05-04T21:48:06.611Z,5.32
2023-05-04T21:50:39.857Z,8.88
2023-05-04T21:53:12.155Z,7.25
2023-05-04T21:55:44.471Z,6.18
2023-05-04T21:58:16.840Z,5.07
2023-05-04T22:00:49.146Z,7.43
2023-05-04T22:03:21.469Z,6.35
2023-05-04T22:05:56.842Z,4.82
2023-05-04T22:08:29.223Z,6.07
2023-05-04T22:11:02.012Z,5.40
2023-05-04T22:13:34.332Z,6.18
2023-05-04T22:16:08.229Z,5.47
2023-05-04T22:18:40.741Z,7.25
2023-05-04T22:21:13.686Z,5.28
2023-05-04T22:23:46.030Z,5.47
2023-05-04T22:26:18.292Z,6.15
2023-05-04T22:28:50.588Z,8.27
2023-05-04T22:31:22.976Z,5.47
2023-05-04T22:33:55.429Z,8.60
2023-05-04T22:36:28.391Z,4.85
2023-05-04T22:39:01.108Z,5.75
2023-05-04T22:41:33.391Z,5.82
2023-05-04T22:44:06.662Z,6.00
2023-05-04T22:46:39.019Z,5.18
2023-05-04T22:49:11.270Z,6.15
2023-05-04T22:51:44.490Z,5.70
2023-05-04T22:54:16.771Z,5.35
2023-05-04T22:56:49.005Z,4.72
2023-05-04T22:59:21.258Z,5.10
2023-05-04T23:01:53.617Z,7.80
2023-05-04T23:04:25.917Z,9.25
2023-05-04T23:06:58.947Z,5.35
2023-05-04T23:09:32.396Z,5.30
2023-05-04T23:12:05.001Z,8.75
2023-05-04T23:14:37.529Z,6.78
2023-05-04T23:17:10.209Z,6.47
2023-05-04T23:19:42.457Z,7.85
2023-05-04T23:22:15.384Z,7.85
2023-05-04T23:24:47.626Z,6.93
2023-05-04T23:27:19.919Z,8.70
2023-05-04T23:29:52.313Z,6.28
2023-05-04T23:32:24.805Z,5.60
2023-05-04T23:34:57.278Z,5.85
2023-05-04T23:37:31.295Z,7.90
2023-05-04T23:40:04.588Z,6.70
2023-05-04T23:42:36.995Z,8.60
2023-05-04T23:45:10.943Z,10.23
2023-05-04T23:47:43.307Z,8.60
2023-05-04T23:50:15.966Z,7.38
2023-05-04T23:52:48.891Z,6.78
2023-05-04T23:55:21.203Z,7.13
2023-05-04T23:57:53.435Z,7.40
